createdAt,value
2023-03-23T15:57:52.623Z,91273.38
2023-03-23T16:00:21.154Z,91281.63
2023-03-23T16:02:53.225Z,91282.69
2023-03-23T16:05:22.394Z,91280.78
2023-03-23T16:07:50.307Z,91276.19
2023-03-23T16:10:19.800Z,91285.22
2023-03-23T16:12:46.976Z,91295.69
2023-03-23T16:15:14.543Z,91282.81
2023-03-23T16:17:41.758Z,91291.72
2023-03-23T16:20:17.837Z,91297.56
2023-03-23T16:22:44.530Z,91295.09
2023-03-23T16:25:11.621Z,91305.81
2023-03-23T16:27:40.073Z,91302.69
2023-03-23T16:30:22.631Z,91303.56
2023-03-23T16:32:49.418Z,91301.69
2023-03-23T16:35:16.787Z,91308.00
2023-03-23T16:37:48.449Z,91311.72
2023-03-23T16:40:16.848Z,91306.41
2023-03-23T16:42:43.925Z,91313.06
2023-03-23T16:45:13.172Z,91306.94
2023-03-23T16:47:40.708Z,91308.81
2023-03-23T16:50:11.800Z,91314.41
2023-03-23T16:52:46.178Z,91313.16
2023-03-23T16:55:15.861Z,91316.53
2023-03-23T16:57:43.481Z,91321.13
2023-03-23T17:00:15.713Z,91316.03
2023-03-23T17:02:43.618Z,91326.84
2023-03-23T17:05:11.456Z,91324.28
2023-03-23T17:07:42.410Z,91326.69
2023-03-23T17:10:11.114Z,91330.00
2023-03-23T17:12:37.806Z,91334.03
2023-03-23T17:15:05.491Z,91342.38
2023-03-23T17:17:32.598Z,91348.28
2023-03-23T17:20:01.167Z,91353.34
2023-03-23T17:22:29.209Z,91361.41
2023-03-23T17:24:57.496Z,91366.97
2023-03-23T17:27:25.128Z,91369.53
2023-03-23T17:29:52.386Z,91376.53
2023-03-23T17:32:20.782Z,91374.59
2023-03-23T17:34:47.486Z,91376.28
2023-03-23T17:37:14.274Z,91379.78
2023-03-23T17:39:43.136Z,91390.25
2023-03-23T17:42:10.884Z,91387.56
2023-03-23T17:44:37.696Z,91376.00
2023-03-23T17:47:04.625Z,91390.97
2023-03-23T17:49:31.737Z,91394.59
2023-03-23T17:51:59.529Z,91387.31
2023-03-23T17:54:26.542Z,91394.34
2023-03-23T17:56:53.766Z,91399.94
2023-03-23T17:59:23.400Z,91398.44
2023-03-23T18:01:50.502Z,91400.75
2023-03-23T18:04:17.287Z,91400.25
2023-03-23T18:06:44.100Z,91399.28
2023-03-23T18:09:11.077Z,91414.63
2023-03-23T18:11:37.817Z,91409.53
2023-03-23T18:14:05.097Z,91417.75
2023-03-23T18:16:31.908Z,91416.88
2023-03-23T18:18:58.727Z,91422.06
2023-03-23T18:21:27.139Z,91421.88
2023-03-23T18:23:59.571Z,91422.78
2023-03-23T18:26:27.777Z,91424.09
2023-03-23T18:28:54.619Z,91416.00
2023-03-23T18:31:21.884Z,91425.50
2023-03-23T18:33:51.339Z,91423.28
2023-03-23T18:36:21.241Z,91425.06
2023-03-23T18:38:48.830Z,91428.22
2023-03-23T18:41:17.367Z,91427.31
2023-03-23T18:43:44.539Z,91432.72
2023-03-23T18:46:11.247Z,91432.38
2023-03-23T18:48:37.979Z,91427.91
2023-03-23T18:51:05.195Z,91435.09
2023-03-23T18:53:32.271Z,91416.25
2023-03-23T18:56:11.236Z,91431.63
2023-03-23T18:58:38.484Z,91429.03
2023-03-23T19:01:12.382Z,91425.34
2023-03-23T19:03:40.527Z,91432.84
2023-03-23T19:06:15.481Z,91439.31
2023-03-23T19:08:45.330Z,91440.16
2023-03-23T19:11:13.162Z,91433.47
2023-03-23T19:13:47.123Z,91436.19
2023-03-23T19:16:21.105Z,91431.91
2023-03-23T19:18:47.885Z,91427.53
2023-03-23T19:21:17.567Z,91434.50
2023-03-23T19:23:47.252Z,91434.75
2023-03-23T19:26:23.377Z,91436.22
2023-03-23T19:31:22.734Z,91441.81
2023-03-23T19:33:49.582Z,91433.69
2023-03-23T19:36:16.997Z,91438.22
2023-03-23T19:38:44.057Z,91436.25
2023-03-23T19:41:11.180Z,91438.69
2023-03-23T19:43:38.075Z,91442.97
2023-03-23T19:46:05.180Z,91445.19
2023-03-23T19:48:31.993Z,91447.00
2023-03-23T19:50:58.902Z,91445.19
2023-03-23T19:53:26.727Z,91450.41
2023-03-23T19:55:53.768Z,91441.22
2023-03-23T19:58:21.223Z,91449.03
2023-03-23T20:00:48.626Z,91439.97
2023-03-23T20:03:17.308Z,91439.03
2023-03-23T20:05:45.250Z,91447.13
2023-03-23T20:08:12.712Z,91446.16
2023-03-23T20:10:41.124Z,91455.09
2023-03-23T20:13:08.296Z,91454.75
2023-03-23T20:15:34.989Z,91464.22
2023-03-23T20:18:02.090Z,91460.28
2023-03-23T20:20:36.652Z,91461.41
2023-03-23T20:23:04.688Z,91464.75
2023-03-23T20:25:31.478Z,91466.97
2023-03-23T20:27:58.281Z,91473.47
2023-03-23T20:30:25.736Z,91474.16
2023-03-23T20:32:53.721Z,91473.09
2023-03-23T20:35:22.517Z,91476.91
2023-03-23T20:37:50.712Z,91477.59
2023-03-23T20:40:18.715Z,91465.06
2023-03-23T20:42:45.553Z,91468.75
2023-03-23T20:45:13.384Z,91484.19
2023-03-23T20:47:41.364Z,91474.84
2023-03-23T20:50:10.154Z,91485.75
2023-03-23T20:52:37.228Z,91481.69
2023-03-23T20:55:04.649Z,91482.50
2023-03-23T20:57:31.329Z,91474.69
2023-03-23T20:59:58.305Z,91488.16
2023-03-23T21:02:29.878Z,91483.78
2023-03-23T21:04:58.265Z,91482.94
2023-03-23T21:07:27.462Z,91482.19
2023-03-23T21:09:56.240Z,91480.59
2023-03-23T21:12:22.960Z,91479.25
2023-03-23T21:14:49.738Z,91480.31
2023-03-23T21:17:16.435Z,91481.16
2023-03-23T21:19:43.430Z,91483.53
2023-03-23T21:22:14.667Z,91465.78
2023-03-23T21:24:41.379Z,91479.81
2023-03-23T21:27:08.246Z,91486.06
2023-03-23T21:29:34.883Z,91483.53
2023-03-23T21:32:08.098Z,91477.63
2023-03-23T21:34:36.813Z,91483.53
2023-03-23T21:37:03.738Z,91470.50
2023-03-23T21:39:30.429Z,91480.47
2023-03-23T21:41:59.597Z,91476.38
2023-03-23T21:44:26.451Z,91473.63
2023-03-23T21:46:54.611Z,91471.56
2023-03-23T21:49:21.821Z,91472.47
2023-03-23T21:51:49.567Z,91466.44
2023-03-23T21:54:16.352Z,91465.78
2023-03-23T21:56:43.257Z,91464.47
2023-03-23T21:59:09.972Z,91470.50
2023-03-23T22:01:37.330Z,91465.44
2023-03-23T22:04:05.429Z,91464.50
2023-03-23T22:06:34.553Z,91464.81
2023-03-23T22:09:05.317Z,91468.19
2023-03-23T22:11:32.944Z,91461.56
2023-03-23T22:14:00.871Z,91462.66
2023-03-23T22:16:28.139Z,91470.56
2023-03-23T22:18:56.949Z,91462.22
2023-03-23T22:21:26.434Z,91466.34
2023-03-23T22:23:55.422Z,91460.03
2023-03-23T22:26:22.601Z,91471.88
2023-03-23T22:28:51.044Z,91468.59
2023-03-23T22:31:23.730Z,91462.00
2023-03-23T22:33:56.114Z,91464.75
2023-03-23T22:36:28.289Z,91460.88
2023-03-23T22:38:56.483Z,91466.06
2023-03-23T22:41:26.227Z,91471.28
2023-03-23T22:43:53.317Z,91470.19
2023-03-23T22:46:21.063Z,91439.53
2023-03-23T22:48:48.127Z,91469.28
2023-03-23T22:51:16.979Z,91470.72
2023-03-23T22:53:44.296Z,91470.53
2023-03-23T22:56:11.758Z,91476.56
2023-03-23T22:58:38.892Z,91469.13
2023-03-23T23:01:09.216Z,91473.75
2023-03-23T23:03:36.930Z,91462.44
2023-03-23T23:06:04.393Z,91468.13
2023-03-23T23:08:32.994Z,91468.47
2023-03-23T23:11:02.131Z,91469.47
2023-03-23T23:13:31.218Z,91471.59
2023-03-23T23:16:01.666Z,91465.53
2023-03-23T23:18:30.499Z,91464.22
2023-03-23T23:20:59.811Z,91470.72
2023-03-23T23:23:27.949Z,91466.56
2023-03-23T23:25:54.918Z,91459.66
2023-03-23T23:28:22.958Z,91460.78
2023-03-23T23:30:50.965Z,91466.03
2023-03-23T23:33:18.855Z,91464.44
2023-03-23T23:35:46.414Z,91463.28
2023-03-23T23:38:13.602Z,91462.38
2023-03-23T23:40:44.414Z,91463.22
2023-03-23T23:43:13.273Z,91456.06
2023-03-23T23:45:40.922Z,91459.84
2023-03-23T23:48:08.447Z,91448.16
2023-03-23T23:50:35.486Z,91452.38
2023-03-23T23:53:02.228Z,91453.34
2023-03-23T23:55:28.937Z,91449.59
2023-03-23T23:57:56.177Z,91456.31
